sensor_id;sensor_type;location;lat;lon;timestamp;temperature;humidity
69281;SHT31;56392;51.082;17.080;2023-07-29T00:02:52;18.41;82.39
69281;SHT31;56392;51.082;17.080;2023-07-29T00:08:15;18.35;81.98
69281;SHT31;56392;51.082;17.080;2023-07-29T00:13:39;18.34;82.10
69281;SHT31;56392;51.082;17.080;2023-07-29T00:19:03;18.20;82.26
69281;SHT31;56392;51.082;17.080;2023-07-29T00:24:26;18.18;82.75
69281;SHT31;56392;51.082;17.080;2023-07-29T00:29:50;18.15;83.12
69281;SHT31;56392;51.082;17.080;2023-07-29T00:35:13;18.07;82.83
69281;SHT31;56392;51.082;17.080;2023-07-29T00:40:37;18.07;83.16
69281;SHT31;56392;51.082;17.080;2023-07-29T00:46:01;18.04;83.42
69281;SHT31;56392;51.082;17.080;2023-07-29T00:51:25;17.96;83.03
69281;SHT31;56392;51.082;17.080;2023-07-29T00:56:48;17.93;83.09
69281;SHT31;56392;51.082;17.080;2023-07-29T01:02:12;17.84;83.17
69281;SHT31;56392;51.082;17.080;2023-07-29T01:07:41;17.79;83.24
69281;SHT31;56392;51.082;17.080;2023-07-29T01:13:14;17.69;83.23
69281;SHT31;56392;51.082;17.080;2023-07-29T01:18:41;17.66;83.44
69281;SHT31;56392;51.082;17.080;2023-07-29T01:24:07;17.62;83.64
69281;SHT31;56392;51.082;17.080;2023-07-29T01:29:30;17.57;83.92
69281;SHT31;56392;51.082;17.080;2023-07-29T01:34:57;17.52;83.99
69281;SHT31;56392;51.082;17.080;2023-07-29T01:40:27;17.46;83.91
69281;SHT31;56392;51.082;17.080;2023-07-29T01:45:50;17.45;83.99
69281;SHT31;56392;51.082;17.080;2023-07-29T01:51:14;17.36;83.88
69281;SHT31;56392;51.082;17.080;2023-07-29T01:56:38;17.33;83.94
69281;SHT31;56392;51.082;17.080;2023-07-29T02:02:01;17.38;84.09
69281;SHT31;56392;51.082;17.080;2023-07-29T02:07:24;17.35;84.15
69281;SHT31;56392;51.082;17.080;2023-07-29T02:12:49;17.29;83.90
69281;SHT31;56392;51.082;17.080;2023-07-29T02:18:12;17.32;83.94
69281;SHT31;56392;51.082;17.080;2023-07-29T02:23:35;17.49;83.27
69281;SHT31;56392;51.082;17.080;2023-07-29T02:29:00;17.38;83.25
69281;SHT31;56392;51.082;17.080;2023-07-29T02:34:23;17.25;83.59
69281;SHT31;56392;51.082;17.080;2023-07-29T02:39:46;17.18;84.14
69281;SHT31;56392;51.082;17.080;2023-07-29T02:45:11;17.19;84.13
69281;SHT31;56392;51.082;17.080;2023-07-29T02:50:34;17.16;84.00
69281;SHT31;56392;51.082;17.080;2023-07-29T02:55:57;17.15;84.19
69281;SHT31;56392;51.082;17.080;2023-07-29T03:01:23;17.11;84.06
69281;SHT31;56392;51.082;17.080;2023-07-29T03:06:46;17.02;84.43
69281;SHT31;56392;51.082;17.080;2023-07-29T03:12:10;17.01;84.36
69281;SHT31;56392;51.082;17.080;2023-07-29T03:17:34;17.01;84.29
69281;SHT31;56392;51.082;17.080;2023-07-29T03:22:57;17.01;84.45
69281;SHT31;56392;51.082;17.080;2023-07-29T03:28:20;16.98;84.73
69281;SHT31;56392;51.082;17.080;2023-07-29T03:33:44;17.02;84.76
69281;SHT31;56392;51.082;17.080;2023-07-29T03:39:08;17.10;84.97
69281;SHT31;56392;51.082;17.080;2023-07-29T03:44:31;17.15;84.74
69281;SHT31;56392;51.082;17.080;2023-07-29T03:49:56;17.15;84.85
69281;SHT31;56392;51.082;17.080;2023-07-29T03:55:19;17.15;85.13
69281;SHT31;56392;51.082;17.080;2023-07-29T04:00:43;17.19;85.14
69281;SHT31;56392;51.082;17.080;2023-07-29T04:06:07;17.18;85.21
69281;SHT31;56392;51.082;17.080;2023-07-29T04:11:30;17.32;85.21
69281;SHT31;56392;51.082;17.080;2023-07-29T04:16:53;17.45;84.59
69281;SHT31;56392;51.082;17.080;2023-07-29T04:22:18;17.59;84.36
69281;SHT31;56392;51.082;17.080;2023-07-29T04:27:41;17.73;83.84
69281;SHT31;56392;51.082;17.080;2023-07-29T04:33:04;17.80;83.51
69281;SHT31;56392;51.082;17.080;2023-07-29T04:38:30;17.94;83.45
69281;SHT31;56392;51.082;17.080;2023-07-29T04:43:53;18.01;83.05
69281;SHT31;56392;51.082;17.080;2023-07-29T04:49:16;18.07;82.51
69281;SHT31;56392;51.082;17.080;2023-07-29T04:54:41;18.21;82.58
69281;SHT31;56392;51.082;17.080;2023-07-29T05:00:05;18.34;82.08
69281;SHT31;56392;51.082;17.080;2023-07-29T05:05:28;18.55;82.16
69281;SHT31;56392;51.082;17.080;2023-07-29T05:10:53;18.65;82.19
69281;SHT31;56392;51.082;17.080;2023-07-29T05:16:16;19.31;80.82
69281;SHT31;56392;51.082;17.080;2023-07-29T05:21:39;20.08;78.93
69281;SHT31;56392;51.082;17.080;2023-07-29T05:27:04;20.80;77.51
69281;SHT31;56392;51.082;17.080;2023-07-29T05:32:27;21.34;76.09
69281;SHT31;56392;51.082;17.080;2023-07-29T05:37:51;22.07;74.52
69281;SHT31;56392;51.082;17.080;2023-07-29T05:43:17;22.91;71.65
69281;SHT31;56392;51.082;17.080;2023-07-29T05:48:40;23.55;69.20
69281;SHT31;56392;51.082;17.080;2023-07-29T05:54:03;23.69;69.07
69281;SHT31;56392;51.082;17.080;2023-07-29T05:59:27;24.49;67.19
69281;SHT31;56392;51.082;17.080;2023-07-29T06:04:51;24.95;65.89
69281;SHT31;56392;51.082;17.080;2023-07-29T06:10:15;24.73;65.69
69281;SHT31;56392;51.082;17.080;2023-07-29T06:15:41;25.34;64.77
69281;SHT31;56392;51.082;17.080;2023-07-29T06:21:04;25.87;63.54
69281;SHT31;56392;51.082;17.080;2023-07-29T06:26:29;26.40;62.98
69281;SHT31;56392;51.082;17.080;2023-07-29T06:31:54;26.84;60.72
69281;SHT31;56392;51.082;17.080;2023-07-29T06:37:17;27.28;58.83
69281;SHT31;56392;51.082;17.080;2023-07-29T06:42:40;27.66;58.70
69281;SHT31;56392;51.082;17.080;2023-07-29T06:48:06;28.13;56.67
69281;SHT31;56392;51.082;17.080;2023-07-29T06:53:29;28.23;56.20
69281;SHT31;56392;51.082;17.080;2023-07-29T06:58:52;28.37;56.37
69281;SHT31;56392;51.082;17.080;2023-07-29T07:04:17;28.77;53.63
69281;SHT31;56392;51.082;17.080;2023-07-29T07:09:40;29.15;53.91
69281;SHT31;56392;51.082;17.080;2023-07-29T07:15:03;29.22;53.19
69281;SHT31;56392;51.082;17.080;2023-07-29T07:20:28;29.49;52.37
69281;SHT31;56392;51.082;17.080;2023-07-29T07:25:52;29.72;52.57
69281;SHT31;56392;51.082;17.080;2023-07-29T07:31:15;29.67;53.42
69281;SHT31;56392;51.082;17.080;2023-07-29T07:36:40;30.20;52.22
69281;SHT31;56392;51.082;17.080;2023-07-29T07:42:04;30.32;50.63
69281;SHT31;56392;51.082;17.080;2023-07-29T07:47:30;30.31;50.86
69281;SHT31;56392;51.082;17.080;2023-07-29T07:52:55;30.51;50.57
69281;SHT31;56392;51.082;17.080;2023-07-29T07:58:18;30.64;50.42
69281;SHT31;56392;51.082;17.080;2023-07-29T08:03:42;31.20;49.03
69281;SHT31;56392;51.082;17.080;2023-07-29T08:09:21;31.27;47.88
69281;SHT31;56392;51.082;17.080;2023-07-29T08:14:44;31.30;47.58
69281;SHT31;56392;51.082;17.080;2023-07-29T08:20:09;30.95;48.98
69281;SHT31;56392;51.082;17.080;2023-07-29T08:25:36;30.21;49.94
69281;SHT31;56392;51.082;17.080;2023-07-29T08:31:00;29.84;50.92
69281;SHT31;56392;51.082;17.080;2023-07-29T08:36:23;30.52;49.09
69281;SHT31;56392;51.082;17.080;2023-07-29T08:41:51;31.16;48.38
69281;SHT31;56392;51.082;17.080;2023-07-29T08:47:17;31.44;47.40
69281;SHT31;56392;51.082;17.080;2023-07-29T08:52:41;31.81;46.33
69281;SHT31;56392;51.082;17.080;2023-07-29T08:58:08;31.90;47.34
69281;SHT31;56392;51.082;17.080;2023-07-29T09:03:31;31.71;45.90
69281;SHT31;56392;51.082;17.080;2023-07-29T09:08:55;31.84;45.52
69281;SHT31;56392;51.082;17.080;2023-07-29T09:14:20;32.42;44.74
69281;SHT31;56392;51.082;17.080;2023-07-29T09:19:47;33.20;43.62
69281;SHT31;56392;51.082;17.080;2023-07-29T09:25:12;32.24;44.33
69281;SHT31;56392;51.082;17.080;2023-07-29T09:30:40;33.54;41.45
69281;SHT31;56392;51.082;17.080;2023-07-29T09:36:09;36.99;35.11
69281;SHT31;56392;51.082;17.080;2023-07-29T09:41:33;41.69;29.23
69281;SHT31;56392;51.082;17.080;2023-07-29T09:46:58;44.11;27.10
69281;SHT31;56392;51.082;17.080;2023-07-29T09:52:22;44.16;26.53
69281;SHT31;56392;51.082;17.080;2023-07-29T09:57:46;43.68;26.95
69281;SHT31;56392;51.082;17.080;2023-07-29T10:03:10;37.96;33.59
69281;SHT31;56392;51.082;17.080;2023-07-29T10:08:34;42.38;28.57
69281;SHT31;56392;51.082;17.080;2023-07-29T10:14:00;43.74;26.15
69281;SHT31;56392;51.082;17.080;2023-07-29T10:19:29;42.99;27.17
69281;SHT31;56392;51.082;17.080;2023-07-29T10:24:54;43.03;26.87
69281;SHT31;56392;51.082;17.080;2023-07-29T10:30:20;38.77;31.69
69281;SHT31;56392;51.082;17.080;2023-07-29T10:35:45;34.60;37.78
69281;SHT31;56392;51.082;17.080;2023-07-29T10:41:09;34.20;37.82
69281;SHT31;56392;51.082;17.080;2023-07-29T10:46:34;32.89;40.29
69281;SHT31;56392;51.082;17.080;2023-07-29T10:51:59;37.19;33.49
69281;SHT31;56392;51.082;17.080;2023-07-29T10:57:30;34.26;37.92
69281;SHT31;56392;51.082;17.080;2023-07-29T11:03:00;34.59;37.75
69281;SHT31;56392;51.082;17.080;2023-07-29T11:08:27;33.79;39.24
69281;SHT31;56392;51.082;17.080;2023-07-29T11:13:51;32.66;40.59
69281;SHT31;56392;51.082;17.080;2023-07-29T11:19:18;31.71;42.62
69281;SHT31;56392;51.082;17.080;2023-07-29T11:24:43;31.49;42.88
69281;SHT31;56392;51.082;17.080;2023-07-29T11:30:08;31.44;43.38
69281;SHT31;56392;51.082;17.080;2023-07-29T11:35:34;31.22;43.34
69281;SHT31;56392;51.082;17.080;2023-07-29T11:41:00;30.95;43.32
69281;SHT31;56392;51.082;17.080;2023-07-29T11:46:24;30.76;44.26
69281;SHT31;56392;51.082;17.080;2023-07-29T11:51:48;30.62;44.97
69281;SHT31;56392;51.082;17.080;2023-07-29T11:57:13;30.41;44.83
69281;SHT31;56392;51.082;17.080;2023-07-29T12:02:38;30.25;44.42
69281;SHT31;56392;51.082;17.080;2023-07-29T12:08:01;30.16;44.57
69281;SHT31;56392;51.082;17.080;2023-07-29T12:13:26;30.21;44.43
69281;SHT31;56392;51.082;17.080;2023-07-29T12:18:50;30.01;44.38
69281;SHT31;56392;51.082;17.080;2023-07-29T12:24:14;29.83;43.66
69281;SHT31;56392;51.082;17.080;2023-07-29T12:29:41;29.86;43.76
69281;SHT31;56392;51.082;17.080;2023-07-29T12:35:09;29.72;44.38
69281;SHT31;56392;51.082;17.080;2023-07-29T12:40:37;29.70;43.67
69281;SHT31;56392;51.082;17.080;2023-07-29T12:46:01;29.79;44.20
69281;SHT31;56392;51.082;17.080;2023-07-29T12:51:24;29.76;43.83
69281;SHT31;56392;51.082;17.080;2023-07-29T12:56:48;29.63;44.45
69281;SHT31;56392;51.082;17.080;2023-07-29T13:02:13;29.58;44.88
69281;SHT31;56392;51.082;17.080;2023-07-29T13:07:36;29.38;44.84
69281;SHT31;56392;51.082;17.080;2023-07-29T13:12:59;29.30;44.83
69281;SHT31;56392;51.082;17.080;2023-07-29T13:18:24;29.26;45.16
69281;SHT31;56392;51.082;17.080;2023-07-29T13:23:47;29.28;45.35
69281;SHT31;56392;51.082;17.080;2023-07-29T13:29:10;29.43;45.35
69281;SHT31;56392;51.082;17.080;2023-07-29T13:34:35;29.46;44.97
69281;SHT31;56392;51.082;17.080;2023-07-29T13:39:58;29.39;44.42
69281;SHT31;56392;51.082;17.080;2023-07-29T13:45:21;29.35;44.79
69281;SHT31;56392;51.082;17.080;2023-07-29T13:50:46;29.39;45.23
69281;SHT31;56392;51.082;17.080;2023-07-29T13:56:09;29.45;45.27
69281;SHT31;56392;51.082;17.080;2023-07-29T14:01:32;29.46;45.42
69281;SHT31;56392;51.082;17.080;2023-07-29T14:06:56;29.28;45.98
69281;SHT31;56392;51.082;17.080;2023-07-29T14:12:19;29.19;45.95
69281;SHT31;56392;51.082;17.080;2023-07-29T14:17:42;28.92;45.53
69281;SHT31;56392;51.082;17.080;2023-07-29T14:23:06;28.70;45.69
69281;SHT31;56392;51.082;17.080;2023-07-29T14:28:30;28.58;46.27
69281;SHT31;56392;51.082;17.080;2023-07-29T14:33:53;28.57;46.54
69281;SHT31;56392;51.082;17.080;2023-07-29T14:39:18;28.54;46.67
69281;SHT31;56392;51.082;17.080;2023-07-29T14:44:42;28.44;47.25
69281;SHT31;56392;51.082;17.080;2023-07-29T14:50:05;28.29;47.62
69281;SHT31;56392;51.082;17.080;2023-07-29T14:55:31;28.19;48.24
69281;SHT31;56392;51.082;17.080;2023-07-29T15:00:54;28.03;48.24
69281;SHT31;56392;51.082;17.080;2023-07-29T15:06:17;27.93;48.78
69281;SHT31;56392;51.082;17.080;2023-07-29T15:11:41;27.86;49.13
69281;SHT31;56392;51.082;17.080;2023-07-29T15:17:05;27.78;49.14
69281;SHT31;56392;51.082;17.080;2023-07-29T15:22:28;27.76;49.36
69281;SHT31;56392;51.082;17.080;2023-07-29T15:27:54;27.70;49.46
69281;SHT31;56392;51.082;17.080;2023-07-29T15:33:17;27.65;49.46
69281;SHT31;56392;51.082;17.080;2023-07-29T15:38:40;27.66;49.71
69281;SHT31;56392;51.082;17.080;2023-07-29T15:44:05;27.58;50.08
69281;SHT31;56392;51.082;17.080;2023-07-29T15:49:28;27.39;50.13
69281;SHT31;56392;51.082;17.080;2023-07-29T15:54:51;27.18;50.54
69281;SHT31;56392;51.082;17.080;2023-07-29T16:00:17;27.04;50.82
69281;SHT31;56392;51.082;17.080;2023-07-29T16:05:41;26.97;51.22
69281;SHT31;56392;51.082;17.080;2023-07-29T16:11:04;26.87;51.49
69281;SHT31;56392;51.082;17.080;2023-07-29T16:16:29;26.86;51.74
69281;SHT31;56392;51.082;17.080;2023-07-29T16:21:52;26.83;51.64
69281;SHT31;56392;51.082;17.080;2023-07-29T16:27:15;26.79;50.84
69281;SHT31;56392;51.082;17.080;2023-07-29T16:32:40;26.76;51.17
69281;SHT31;56392;51.082;17.080;2023-07-29T16:38:04;26.63;51.82
69281;SHT31;56392;51.082;17.080;2023-07-29T16:43:27;26.52;51.78
69281;SHT31;56392;51.082;17.080;2023-07-29T16:48:52;26.39;51.68
69281;SHT31;56392;51.082;17.080;2023-07-29T16:54:15;26.29;51.59
69281;SHT31;56392;51.082;17.080;2023-07-29T16:59:39;26.19;51.39
69281;SHT31;56392;51.082;17.080;2023-07-29T17:05:04;26.18;51.36
69281;SHT31;56392;51.082;17.080;2023-07-29T17:10:28;25.94;51.67
69281;SHT31;56392;51.082;17.080;2023-07-29T17:15:51;25.74;52.15
69281;SHT31;56392;51.082;17.080;2023-07-29T17:21:16;25.63;52.39
69281;SHT31;56392;51.082;17.080;2023-07-29T17:26:39;25.57;52.82
69281;SHT31;56392;51.082;17.080;2023-07-29T17:32:02;25.54;53.26
69281;SHT31;56392;51.082;17.080;2023-07-29T17:37:27;25.53;53.36
69281;SHT31;56392;51.082;17.080;2023-07-29T17:42:50;25.54;53.30
69281;SHT31;56392;51.082;17.080;2023-07-29T17:48:14;25.51;53.30
69281;SHT31;56392;51.082;17.080;2023-07-29T17:53:38;25.53;53.19
69281;SHT31;56392;51.082;17.080;2023-07-29T17:59:01;25.43;53.48
69281;SHT31;56392;51.082;17.080;2023-07-29T18:04:24;25.33;54.21
69281;SHT31;56392;51.082;17.080;2023-07-29T18:09:49;25.19;54.38
69281;SHT31;56392;51.082;17.080;2023-07-29T18:15:12;25.07;55.22
69281;SHT31;56392;51.082;17.080;2023-07-29T18:20:35;24.76;57.81
69281;SHT31;56392;51.082;17.080;2023-07-29T18:26:00;24.56;59.53
69281;SHT31;56392;51.082;17.080;2023-07-29T18:31:23;24.42;58.76
69281;SHT31;56392;51.082;17.080;2023-07-29T18:36:46;24.42;58.70
69281;SHT31;56392;51.082;17.080;2023-07-29T18:42:13;24.39;58.51
69281;SHT31;56392;51.082;17.080;2023-07-29T18:47:39;24.15;60.48
69281;SHT31;56392;51.082;17.080;2023-07-29T18:53:02;23.81;61.76
69281;SHT31;56392;51.082;17.080;2023-07-29T18:58:27;23.62;61.79
69281;SHT31;56392;51.082;17.080;2023-07-29T19:03:51;23.41;64.25
69281;SHT31;56392;51.082;17.080;2023-07-29T19:09:15;23.22;65.48
69281;SHT31;56392;51.082;17.080;2023-07-29T19:14:40;23.04;65.27
69281;SHT31;56392;51.082;17.080;2023-07-29T19:20:04;22.98;65.82
69281;SHT31;56392;51.082;17.080;2023-07-29T19:25:28;23.09;63.99
69281;SHT31;56392;51.082;17.080;2023-07-29T19:30:54;23.27;62.06
69281;SHT31;56392;51.082;17.080;2023-07-29T19:36:17;23.39;61.54
69281;SHT31;56392;51.082;17.080;2023-07-29T19:41:42;23.39;61.93
69281;SHT31;56392;51.082;17.080;2023-07-29T19:47:07;23.29;62.67
69281;SHT31;56392;51.082;17.080;2023-07-29T19:52:31;23.23;63.05
69281;SHT31;56392;51.082;17.080;2023-07-29T19:57:54;23.19;64.10
69281;SHT31;56392;51.082;17.080;2023-07-29T20:03:20;23.09;65.93
69281;SHT31;56392;51.082;17.080;2023-07-29T20:08:43;23.01;67.75
69281;SHT31;56392;51.082;17.080;2023-07-29T20:14:08;22.87;67.79
69281;SHT31;56392;51.082;17.080;2023-07-29T20:19:33;22.83;67.96
69281;SHT31;56392;51.082;17.080;2023-07-29T20:24:57;22.78;68.63
69281;SHT31;56392;51.082;17.080;2023-07-29T20:30:20;22.68;68.21
69281;SHT31;56392;51.082;17.080;2023-07-29T20:35:52;22.61;67.96
69281;SHT31;56392;51.082;17.080;2023-07-29T20:41:15;22.16;70.86
69281;SHT31;56392;51.082;17.080;2023-07-29T20:46:43;21.61;74.43
69281;SHT31;56392;51.082;17.080;2023-07-29T20:52:07;21.27;76.29
69281;SHT31;56392;51.082;17.080;2023-07-29T20:57:30;21.04;77.29
69281;SHT31;56392;51.082;17.080;2023-07-29T21:02:53;20.93;78.47
69281;SHT31;56392;51.082;17.080;2023-07-29T21:08:18;20.90;78.97
69281;SHT31;56392;51.082;17.080;2023-07-29T21:13:41;20.93;78.65
69281;SHT31;56392;51.082;17.080;2023-07-29T21:19:04;21.12;77.15
69281;SHT31;56392;51.082;17.080;2023-07-29T21:24:29;21.17;76.42
69281;SHT31;56392;51.082;17.080;2023-07-29T21:29:52;21.05;76.31
69281;SHT31;56392;51.082;17.080;2023-07-29T21:35:17;20.95;76.46
69281;SHT31;56392;51.082;17.080;2023-07-29T21:40:41;20.86;76.60
69281;SHT31;56392;51.082;17.080;2023-07-29T21:46:05;20.70;77.07
69281;SHT31;56392;51.082;17.080;2023-07-29T21:51:34;20.69;77.31
69281;SHT31;56392;51.082;17.080;2023-07-29T21:56:58;20.53;77.85
69281;SHT31;56392;51.082;17.080;2023-07-29T22:02:21;20.40;79.11
69281;SHT31;56392;51.082;17.080;2023-07-29T22:07:44;20.21;79.38
69281;SHT31;56392;51.082;17.080;2023-07-29T22:13:09;20.25;79.31
69281;SHT31;56392;51.082;17.080;2023-07-29T22:18:32;20.35;78.29
69281;SHT31;56392;51.082;17.080;2023-07-29T22:23:55;20.02;79.91
69281;SHT31;56392;51.082;17.080;2023-07-29T22:29:20;19.96;79.64
69281;SHT31;56392;51.082;17.080;2023-07-29T22:34:43;19.82;79.73
69281;SHT31;56392;51.082;17.080;2023-07-29T22:40:07;19.61;79.85
69281;SHT31;56392;51.082;17.080;2023-07-29T22:45:34;19.31;80.27
69281;SHT31;56392;51.082;17.080;2023-07-29T22:50:57;19.20;80.45
69281;SHT31;56392;51.082;17.080;2023-07-29T22:56:20;19.06;80.68
69281;SHT31;56392;51.082;17.080;2023-07-29T23:01:45;18.95;80.59
69281;SHT31;56392;51.082;17.080;2023-07-29T23:07:08;18.91;80.88
69281;SHT31;56392;51.082;17.080;2023-07-29T23:12:31;18.81;81.08
69281;SHT31;56392;51.082;17.080;2023-07-29T23:17:55;18.73;81.15
69281;SHT31;56392;51.082;17.080;2023-07-29T23:23:18;18.69;81.40
69281;SHT31;56392;51.082;17.080;2023-07-29T23:28:42;18.58;81.34
69281;SHT31;56392;51.082;17.080;2023-07-29T23:34:09;18.59;81.59
69281;SHT31;56392;51.082;17.080;2023-07-29T23:39:33;18.54;81.54
69281;SHT31;56392;51.082;17.080;2023-07-29T23:44:56;18.51;81.75
69281;SHT31;56392;51.082;17.080;2023-07-29T23:50:21;18.48;81.95
69281;SHT31;56392;51.082;17.080;2023-07-29T23:55:44;18.41;81.77
